Observations for Trim Patrick St
| Time | AQI | Temp °C | Hum % | Pres Pa | CO μg/m³ | H₂S μg/m³ | NO μg/m³ | NO₂ μg/m³ | O₃ μg/m³ | SO₂ μg/m³ | PM1 μg/m³ | PM2.5 μg/m³ | PM10 μg/m³ |
|---|---|---|---|---|---|---|---|---|---|---|---|---|---|
| Friday 7 August 2026 | |||||||||||||
| 17:44 | 3 | 32.7 | 28 | 69,310 | 0 | 0 | 0.82 | 12.34 | 82.05 | 17.38 | 3.71 | 11.01 | 12.11 |
| 17:43 | 3 | 32.7 | 28 | 69,312 | 0 | 3.28 | 0.81 | 13.04 | 113.76 | 18.85 | 2 | 8.6 | 9.46 |
| 17:42 | 3 | 32.8 | 28 | 69,290 | 0 | 3.08 | 0.78 | 15.19 | 123.91 | 17.28 | 3.71 | 11.05 | 12.15 |
| 17:41 | 3 | 32.9 | 28 | 69,288 | 0 | 0 | 0.73 | 13.84 | 110.14 | 18.05 | 2.86 | 8.62 | 9.48 |
| 17:40 | 3 | 33 | 28 | 69,290 | 0 | 0 | 0.68 | 12.87 | 96.38 | 17.91 | 3.71 | 10.22 | 11.24 |
| 17:39 | 3 | 33.1 | 28 | 69,320 | 0 | 0 | 0.69 | 12.7 | 101.05 | 18.71 | 3.71 | 9.43 | 10.38 |
| 17:38 | 3 | 33.1 | 27 | 69,334 | 0 | 0 | 0.71 | 11.78 | 85.74 | 18.85 | 4.57 | 10.29 | 11.32 |
| 17:37 | 3 | 33.2 | 27 | 69,349 | 0 | 0 | 0.71 | 13.05 | 78.88 | 16.95 | 2 | 8.65 | 9.51 |
| 17:36 | 3 | 33.2 | 27 | 69,339 | 0 | 0 | 0.75 | 12.54 | 79.56 | 16.6 | 3.71 | 10.3 | 11.33 |
| 17:35 | 3 | 33.3 | 27 | 69,347 | 0 | 0 | 0.73 | 14.59 | 108.62 | 17.2 | 3.71 | 9.48 | 10.43 |
| 17:34 | 3 | 33.3 | 27 | 69,363 | 0 | 0 | 0.72 | 12.33 | 84.55 | 18.52 | 2.86 | 10.29 | 11.31 |
| 17:33 | 3 | 33.3 | 27 | 69,355 | 0 | 0 | 0.71 | 12.86 | 104.71 | 17.6 | 2 | 7.84 | 8.62 |
| 17:32 | 3 | 33.4 | 27 | 69,371 | 0 | 0 | 0.7 | 12.87 | 71.13 | 17.05 | 2.86 | 9.46 | 10.41 |
| 17:31 | 3 | 33.3 | 27 | 69,367 | 0 | 0 | 0.73 | 12.34 | 79.93 | 18.09 | 2.86 | 10.31 | 11.34 |
| 17:30 | 3 | 33.3 | 27 | 69,357 | 0 | 0 | 0.7 | 13.15 | 79.57 | 17.1 | 2.86 | 8.67 | 9.54 |
| 17:29 | 3 | 33.3 | 28 | 69,347 | 0 | 0 | 0.67 | 13.61 | 96.77 | 17.36 | 2.86 | 8.62 | 9.48 |
| 17:28 | 3 | 33.2 | 27 | 69,359 | 0 | 0 | 0.73 | 12.58 | 77.54 | 16.58 | 2 | 8.65 | 9.51 |
| 17:27 | 3 | 33.2 | 28 | 69,351 | 0 | 0 | 0.69 | 10.17 | 64.95 | 17.31 | 2.86 | 9.41 | 10.36 |
| 17:26 | 3 | 33.1 | 28 | 69,363 | 0 | 0 | 0.73 | 15.13 | 107.56 | 16.73 | 2.86 | 9.41 | 10.35 |
| 17:25 | 3 | 33.1 | 28 | 69,349 | 0 | 0 | 0.72 | 14.88 | 103.44 | 16.96 | 2.86 | 9.39 | 10.33 |